Time;durP1;ratioP1;P1;durP2;ratioP2;P2;SDS_P1;SDS_P2;PMS_P1;PMS_P2;Temp;Humidity;BMP_temperature;BMP_pressure;BME280_temperature;BME280_humidity;BME280_pressure;Samples;Min_cycle;Max_cycle;Signal;HPM_P1;HPM_P2
2021/04/20 00:01:37;;;;;;;;;;;15.80;51.40;;;;;;5011895;28;77705;-73
2021/04/20 00:04:03;;;;;;;;;;;15.80;51.90;;;;;;5011228;28;75899;-73
2021/04/20 00:06:29;;;;;;;;;;;15.70;52.10;;;;;;5015437;28;74478;-73
2021/04/20 00:08:54;;;;;;;;;;;15.70;52.10;;;;;;5011933;28;76855;-72
2021/04/20 00:11:20;;;;;;;;;;;15.60;52.20;;;;;;5014894;28;75147;-75
2021/04/20 00:13:45;;;;;;;;;;;15.50;52.10;;;;;;5014919;28;75215;-71
2021/04/20 00:16:11;;;;;;;;;;;15.60;52.10;;;;;;5012518;28;74922;-71
2021/04/20 00:18:37;;;;;;;;;;;15.50;52.20;;;;;;5011068;28;74520;-71
2021/04/20 00:21:02;;;;;;;;;;;15.50;52.20;;;;;;5011094;28;75418;-71
2021/04/20 00:23:28;;;;;;;;;;;15.50;52.40;;;;;;5011115;28;75327;-69
2021/04/20 00:25:54;;;;;;;;;;;15.50;52.30;;;;;;5010606;28;77358;-66
2021/04/20 00:28:26;;;;;;;;;;;15.40;52.40;;;;;;5011061;28;76572;-69
2021/04/20 00:30:52;;;;;;;;;;;15.40;52.60;;;;;;5012366;28;74740;-70
2021/04/20 00:33:18;;;;;;;;;;;15.40;52.90;;;;;;5010629;28;77174;-68
2021/04/20 00:35:44;;;;;;;;;;;15.40;52.80;;;;;;5012196;28;75325;-71
2021/04/20 00:38:10;;;;;;;;;;;15.40;52.60;;;;;;5010393;28;74459;-70
2021/04/20 00:40:35;;;;;;;;;;;15.40;52.70;;;;;;5012740;28;75228;-69
2021/04/20 00:43:01;;;;;;;;;;;15.40;52.70;;;;;;5010911;28;78116;-65
2021/04/20 00:45:31;;;;;;;;;;;15.30;52.90;;;;;;5010813;28;76115;-68
2021/04/20 00:47:57;;;;;;;;;;;15.30;52.90;;;;;;5010776;28;77407;-68
2021/04/20 00:50:32;;;;;;;;;;;15.30;53.00;;;;;;5010735;28;78465;-69
2021/04/20 00:52:57;;;;;;;;;;;15.30;52.90;;;;;;5010781;28;77434;-66
2021/04/20 00:55:23;;;;;;;;;;;15.20;53.00;;;;;;5012167;28;75752;-68
2021/04/20 00:57:49;;;;;;;;;;;15.20;53.10;;;;;;5010487;28;75982;-68
2021/04/20 01:00:17;;;;;;;;;;;15.10;53.20;;;;;;5010308;28;77435;-69
2021/04/20 01:02:42;;;;;;;;;;;15.00;53.30;;;;;;5011971;28;75188;-69
2021/04/20 01:05:10;;;;;;;;;;;15.00;53.40;;;;;;5010512;28;77905;-71
2021/04/20 01:07:36;;;;;;;;;;;15.00;53.50;;;;;;5010609;28;75528;-67
2021/04/20 01:10:03;;;;;;;;;;;14.90;54.10;;;;;;5011993;28;75648;-67
2021/04/20 01:12:29;;;;;;;;;;;14.90;53.90;;;;;;5010150;28;77602;-67
2021/04/20 01:14:55;;;;;;;;;;;14.90;54.00;;;;;;5012045;28;75209;-66
2021/04/20 01:17:26;;;;;;;;;;;14.90;53.80;;;;;;5009072;28;93875;-68
2021/04/20 01:19:54;;;;;;;;;;;14.90;53.80;;;;;;5010404;28;76288;-67
2021/04/20 01:22:20;;;;;;;;;;;14.90;54.20;;;;;;5015287;28;75287;-68
2021/04/20 01:24:46;;;;;;;;;;;14.90;54.20;;;;;;5013584;28;75816;-69
2021/04/20 01:27:12;;;;;;;;;;;14.80;54.40;;;;;;5015334;28;75350;-68
2021/04/20 01:29:37;;;;;;;;;;;14.90;54.60;;;;;;5015553;28;74505;-69
2021/04/20 01:32:03;;;;;;;;;;;14.90;54.50;;;;;;5015188;28;75135;-68
2021/04/20 01:34:29;;;;;;;;;;;14.90;54.70;;;;;;5014877;28;75219;-68
2021/04/20 01:36:55;;;;;;;;;;;14.90;54.40;;;;;;5015494;28;74637;-69
2021/04/20 01:39:20;;;;;;;;;;;14.90;54.70;;;;;;5013737;28;78154;-67
2021/04/20 01:41:46;;;;;;;;;;;14.90;54.60;;;;;;5013423;28;76775;-68
2021/04/20 01:44:11;;;;;;;;;;;14.90;54.80;;;;;;5013590;28;77250;-68
2021/04/20 01:46:37;;;;;;;;;;;15.00;54.70;;;;;;5014710;28;75131;-67
2021/04/20 01:49:03;;;;;;;;;;;15.00;54.70;;;;;;5015193;28;75333;-69
2021/04/20 01:51:29;;;;;;;;;;;14.90;54.90;;;;;;5015252;28;75184;-71
2021/04/20 01:53:55;;;;;;;;;;;15.00;54.70;;;;;;5013124;28;77588;-72
2021/04/20 01:56:21;;;;;;;;;;;15.00;54.60;;;;;;5013105;28;77921;-69
2021/04/20 01:58:47;;;;;;;;;;;15.00;54.50;;;;;;5014089;28;75238;-70
2021/04/20 02:01:14;;;;;;;;;;;15.00;54.50;;;;;;5012968;28;77936;-69
2021/04/20 02:03:42;;;;;;;;;;;15.00;54.70;;;;;;5014578;28;75142;-72
2021/04/20 02:06:08;;;;;;;;;;;15.00;54.50;;;;;;5015167;28;74485;-71
2021/04/20 02:08:34;;;;;;;;;;;14.90;54.70;;;;;;5013138;28;75426;-71
2021/04/20 02:11:02;;;;;;;;;;;15.00;54.80;;;;;;5013118;28;76936;-68
2021/04/20 02:13:28;;;;;;;;;;;14.90;54.90;;;;;;5014831;28;74654;-66
2021/04/20 02:15:53;;;;;;;;;;;15.00;54.70;;;;;;5014525;28;75476;-71
2021/04/20 02:18:20;;;;;;;;;;;14.90;55.00;;;;;;5014483;28;75413;-68
2021/04/20 02:20:46;;;;;;;;;;;14.90;54.80;;;;;;5012859;28;76621;-70
2021/04/20 02:23:13;;;;;;;;;;;14.90;54.80;;;;;;5013023;28;77383;-70
2021/04/20 02:25:41;;;;;;;;;;;14.90;55.00;;;;;;5013045;28;75767;-73
2021/04/20 02:28:06;;;;;;;;;;;14.90;55.70;;;;;;5014114;28;75452;-73
2021/04/20 02:30:32;;;;;;;;;;;14.80;55.50;;;;;;5014234;28;75313;-70
2021/04/20 02:32:58;;;;;;;;;;;14.80;55.10;;;;;;5012878;28;75237;-71
2021/04/20 02:35:27;;;;;;;;;;;14.80;55.20;;;;;;5013025;28;77754;-69
2021/04/20 02:37:52;;;;;;;;;;;14.80;55.00;;;;;;5012453;28;75578;-70
2021/04/20 02:40:19;;;;;;;;;;;14.80;55.00;;;;;;5012700;28;77682;-71
2021/04/20 02:42:47;;;;;;;;;;;14.80;55.00;;;;;;5012614;28;76631;-70
2021/04/20 02:45:13;;;;;;;;;;;14.90;55.20;;;;;;5012408;28;77598;-67
2021/04/20 02:47:38;;;;;;;;;;;14.90;54.90;;;;;;5013983;28;75753;-68
2021/04/20 02:50:08;;;;;;;;;;;14.90;55.10;;;;;;5014009;28;75562;-71
2021/04/20 02:52:35;;;;;;;;;;;14.90;55.20;;;;;;5014377;28;75455;-67
2021/04/20 02:55:01;;;;;;;;;;;14.90;55.20;;;;;;5012223;28;77448;-67
2021/04/20 02:57:27;;;;;;;;;;;14.90;55.30;;;;;;5014037;28;75517;-66
2021/04/20 02:59:53;;;;;;;;;;;14.80;55.20;;;;;;5011980;28;77088;-70
2021/04/20 03:02:19;;;;;;;;;;;14.80;55.20;;;;;;5011787;28;76191;-71
2021/04/20 03:04:45;;;;;;;;;;;14.80;55.40;;;;;;5013701;28;75069;-70
2021/04/20 03:07:12;;;;;;;;;;;14.70;55.50;;;;;;5013727;28;74590;-68
2021/04/20 03:09:38;;;;;;;;;;;14.70;55.60;;;;;;5012144;28;76497;-66
2021/04/20 03:12:03;;;;;;;;;;;14.60;55.70;;;;;;5013432;28;74903;-72
2021/04/20 03:14:30;;;;;;;;;;;14.60;55.80;;;;;;5012016;28;76425;-66
2021/04/20 03:16:56;;;;;;;;;;;14.60;55.70;;;;;;5013674;28;75222;-67
2021/04/20 03:19:21;;;;;;;;;;;14.60;55.70;;;;;;5011851;28;75702;-70
2021/04/20 03:21:47;;;;;;;;;;;14.70;55.70;;;;;;5011663;28;74792;-71
2021/04/20 03:24:31;;;;;;;;;;;14.70;55.90;;;;;;5011746;28;75925;-67
2021/04/20 03:26:57;;;;;;;;;;;14.70;56.30;;;;;;5012233;28;77333;-68
2021/04/20 03:29:23;;;;;;;;;;;14.60;56.30;;;;;;5012056;28;76994;-68
2021/04/20 03:31:49;;;;;;;;;;;14.60;56.40;;;;;;5011895;28;78225;-73
2021/04/20 03:34:21;;;;;;;;;;;14.60;56.40;;;;;;5011875;28;77246;-73
2021/04/20 03:36:52;;;;;;;;;;;14.70;56.50;;;;;;5013335;28;75254;-70
2021/04/20 03:39:22;;;;;;;;;;;14.70;56.70;;;;;;5011922;28;75310;-67
2021/04/20 03:41:47;;;;;;;;;;;14.70;56.60;;;;;;5011801;28;76820;-69
2021/04/20 03:44:15;;;;;;;;;;;14.70;56.30;;;;;;5011335;28;77404;-73
2021/04/20 03:46:43;;;;;;;;;;;14.70;56.10;;;;;;5011423;28;75519;-71
2021/04/20 03:49:14;;;;;;;;;;;14.60;56.10;;;;;;5011566;28;77100;-71
2021/04/20 03:51:42;;;;;;;;;;;14.60;56.20;;;;;;5011458;28;76291;-72
2021/04/20 03:54:09;;;;;;;;;;;14.70;56.40;;;;;;5011121;28;74724;-71
2021/04/20 03:56:35;;;;;;;;;;;14.60;56.50;;;;;;5013043;28;75247;-72
2021/04/20 03:59:03;;;;;;;;;;;14.60;56.70;;;;;;5010833;28;74789;-69
2021/04/20 04:01:37;;;;;;;;;;;14.60;56.90;;;;;;5011331;28;74682;-66
2021/04/20 04:04:05;;;;;;;;;;;14.50;57.00;;;;;;5010835;28;77719;-70
2021/04/20 04:06:34;;;;;;;;;;;14.60;57.00;;;;;;5011174;28;77550;-70
2021/04/20 04:09:00;;;;;;;;;;;14.60;57.10;;;;;;5011206;28;77300;-69
2021/04/20 04:11:26;;;;;;;;;;;14.60;57.00;;;;;;5011117;28;77299;-68
2021/04/20 04:13:53;;;;;;;;;;;14.60;57.10;;;;;;5012578;28;76735;-69
2021/04/20 04:16:21;;;;;;;;;;;14.60;57.10;;;;;;5011039;28;77320;-70
2021/04/20 04:18:49;;;;;;;;;;;14.70;57.20;;;;;;5012623;28;75208;-69
2021/04/20 04:21:17;;;;;;;;;;;14.70;57.20;;;;;;5012660;28;75270;-72
2021/04/20 04:23:45;;;;;;;;;;;14.70;56.90;;;;;;5010360;28;77333;-70
2021/04/20 04:26:13;;;;;;;;;;;14.70;56.90;;;;;;5012968;28;74577;-69
2021/04/20 04:28:42;;;;;;;;;;;14.70;56.80;;;;;;5012458;28;74592;-68
2021/04/20 04:31:08;;;;;;;;;;;14.70;56.80;;;;;;5011610;28;77937;-71
2021/04/20 04:33:34;;;;;;;;;;;14.70;56.70;;;;;;5011113;28;75179;-72
2021/04/20 04:36:01;;;;;;;;;;;14.60;56.60;;;;;;5009273;28;75745;-72
2021/04/20 04:38:27;;;;;;;;;;;14.60;56.50;;;;;;5011989;28;75181;-68
2021/04/20 04:40:53;;;;;;;;;;;14.60;56.60;;;;;;5012392;28;74467;-68
2021/04/20 04:43:19;;;;;;;;;;;14.50;57.10;;;;;;5012498;28;74956;-70
2021/04/20 04:45:44;;;;;;;;;;;14.40;57.10;;;;;;5010537;28;77608;-68
2021/04/20 04:48:10;;;;;;;;;;;14.40;57.40;;;;;;5012204;28;75170;-70
2021/04/20 04:50:38;;;;;;;;;;;14.20;57.60;;;;;;5010602;28;75151;-70
2021/04/20 04:53:05;;;;;;;;;;;14.10;57.60;;;;;;5012472;28;75096;-71
2021/04/20 04:55:31;;;;;;;;;;;14.10;57.80;;;;;;5012757;28;75301;-69
2021/04/20 04:57:58;;;;;;;;;;;14.10;57.90;;;;;;5014032;28;78031;-70
2021/04/20 05:00:25;;;;;;;;;;;14.10;57.90;;;;;;5015407;28;75725;-68
2021/04/20 05:02:50;;;;;;;;;;;14.10;57.80;;;;;;5013683;28;75391;-69
2021/04/20 05:05:17;;;;;;;;;;;14.10;57.90;;;;;;5014086;28;77485;-71
2021/04/20 05:07:43;;;;;;;;;;;14.10;57.90;;;;;;5015623;28;75404;-71
2021/04/20 05:10:10;;;;;;;;;;;14.20;57.90;;;;;;5015632;28;75715;-71
2021/04/20 05:12:35;;;;;;;;;;;14.20;57.80;;;;;;5015338;28;75717;-71
2021/04/20 05:15:09;;;;;;;;;;;14.20;57.80;;;;;;5013983;28;77965;-74
2021/04/20 05:17:35;;;;;;;;;;;14.30;57.70;;;;;;5013814;28;76025;-73
2021/04/20 05:20:01;;;;;;;;;;;14.30;57.70;;;;;;5013602;28;76460;-73
2021/04/20 05:22:27;;;;;;;;;;;14.40;57.70;;;;;;5015430;28;75202;-69
2021/04/20 05:24:53;;;;;;;;;;;14.40;57.60;;;;;;5015196;28;75425;-66
2021/04/20 05:27:18;;;;;;;;;;;14.40;57.60;;;;;;5013939;28;77522;-68
2021/04/20 05:29:44;;;;;;;;;;;14.30;57.50;;;;;;5013383;28;78262;-66
2021/04/20 05:32:09;;;;;;;;;;;14.30;57.70;;;;;;5015009;28;75234;-68
2021/04/20 05:34:35;;;;;;;;;;;14.20;57.70;;;;;;5019480;28;74974;-67
2021/04/20 05:37:02;;;;;;;;;;;14.10;58.00;;;;;;5015447;28;77679;-66
2021/04/20 05:39:28;;;;;;;;;;;14.10;58.20;;;;;;5019597;28;75315;-65
2021/04/20 05:41:53;;;;;;;;;;;14.10;58.20;;;;;;5014611;28;74534;-65
2021/04/20 05:44:19;;;;;;;;;;;14.20;58.30;;;;;;5022696;28;76293;-65
2021/04/20 05:46:48;;;;;;;;;;;14.10;58.00;;;;;;5034729;28;75547;-64
2021/04/20 05:49:18;;;;;;;;;;;14.10;58.20;;;;;;5033680;28;75940;-64
2021/04/20 05:51:44;;;;;;;;;;;14.00;58.10;;;;;;5015523;28;75178;-66
2021/04/20 05:54:10;;;;;;;;;;;14.00;58.40;;;;;;5022623;28;74542;-67
2021/04/20 05:56:36;;;;;;;;;;;14.00;58.90;;;;;;5033502;28;75341;-66
2021/04/20 05:59:05;;;;;;;;;;;14.00;59.00;;;;;;5032917;28;77068;-65
2021/04/20 06:01:35;;;;;;;;;;;14.00;59.20;;;;;;5033383;28;77558;-65
2021/04/20 06:04:04;;;;;;;;;;;14.10;59.40;;;;;;5034619;28;74564;-79
2021/04/20 06:06:29;;;;;;;;;;;14.10;59.70;;;;;;5034375;28;75579;-64
2021/04/20 06:08:56;;;;;;;;;;;14.10;59.50;;;;;;5033209;28;78277;-65
2021/04/20 06:11:22;;;;;;;;;;;14.20;59.50;;;;;;5032991;28;75483;-65
2021/04/20 06:13:51;;;;;;;;;;;14.10;59.70;;;;;;5033127;28;75701;-65
2021/04/20 06:16:17;;;;;;;;;;;14.20;59.60;;;;;;5034328;28;74611;-65
2021/04/20 06:18:42;;;;;;;;;;;14.10;59.90;;;;;;5032878;28;77685;-64
2021/04/20 06:21:09;;;;;;;;;;;14.20;59.80;;;;;;5034861;28;75038;-65
2021/04/20 06:23:36;;;;;;;;;;;14.20;59.80;;;;;;5034038;28;75855;-65
2021/04/20 06:26:03;;;;;;;;;;;14.10;59.80;;;;;;5014277;28;75233;-64
2021/04/20 06:28:30;;;;;;;;;;;14.10;59.90;;;;;;5029370;28;75801;-64
2021/04/20 06:30:57;;;;;;;;;;;14.20;59.80;;;;;;5033066;28;77371;-63
2021/04/20 06:33:23;;;;;;;;;;;14.20;59.70;;;;;;5028563;28;75436;-64
2021/04/20 06:35:50;;;;;;;;;;;14.30;59.80;;;;;;5029451;28;76097;-64
2021/04/20 06:38:15;;;;;;;;;;;14.40;60.30;;;;;;5034140;28;75286;-65
2021/04/20 06:40:45;;;;;;;;;;;14.40;60.60;;;;;;5032726;28;77960;-65
2021/04/20 06:43:11;;;;;;;;;;;14.40;59.90;;;;;;5034453;28;74330;-64
2021/04/20 06:45:50;;;;;;;;;;;14.40;59.70;;;;;;5032023;28;77249;-64
2021/04/20 06:48:22;;;;;;;;;;;14.50;59.70;;;;;;5032484;28;77185;-65
2021/04/20 06:50:52;;;;;;;;;;;14.60;59.50;;;;;;5032460;28;75524;-64
2021/04/20 06:53:19;;;;;;;;;;;14.70;59.30;;;;;;5032532;28;77229;-67
2021/04/20 06:56:04;;;;;;;;;;;14.90;59.20;;;;;;5033698;28;75479;-65
2021/04/20 06:58:39;;;;;;;;;;;14.90;58.40;;;;;;5033778;28;75479;-65
2021/04/20 07:01:10;;;;;;;;;;;15.00;58.40;;;;;;5033527;28;74675;-64
2021/04/20 07:03:47;;;;;;;;;;;15.00;58.20;;;;;;5031752;28;75317;-64
2021/04/20 07:06:25;;;;;;;;;;;15.00;57.90;;;;;;5013836;28;76398;-63
2021/04/20 07:09:02;;;;;;;;;;;15.00;58.00;;;;;;5013441;28;75350;-66
2021/04/20 07:11:32;;;;;;;;;;;15.00;58.20;;;;;;5013669;28;74595;-65
2021/04/20 07:14:01;;;;;;;;;;;15.10;58.10;;;;;;5013308;28;75061;-66
2021/04/20 07:16:29;;;;;;;;;;;15.10;58.00;;;;;;5013427;28;74989;-64
2021/04/20 07:18:55;;;;;;;;;;;15.10;57.80;;;;;;5010325;28;75382;-65
2021/04/20 07:21:20;;;;;;;;;;;15.20;57.80;;;;;;5013466;28;75128;-67
2021/04/20 07:23:46;;;;;;;;;;;15.20;57.80;;;;;;5012128;28;76298;-66
2021/04/20 07:26:24;;;;;;;;;;;15.30;57.70;;;;;;5012849;28;75133;-65
2021/04/20 07:28:58;;;;;;;;;;;15.30;57.70;;;;;;5011151;28;75094;-64
2021/04/20 07:31:36;;;;;;;;;;;15.30;57.80;;;;;;5022331;28;76583;-66
2021/04/20 07:34:13;;;;;;;;;;;15.40;57.60;;;;;;5031383;28;75753;-63
2021/04/20 07:36:56;;;;;;;;;;;15.40;57.40;;;;;;5032816;28;75175;-63
2021/04/20 07:39:24;;;;;;;;;;;15.40;57.60;;;;;;5031247;28;75738;-66
2021/04/20 07:41:58;;;;;;;;;;;15.40;57.70;;;;;;5033131;28;75184;-67
2021/04/20 07:44:29;;;;;;;;;;;15.40;57.70;;;;;;5031343;28;77098;-63
2021/04/20 07:46:56;;;;;;;;;;;15.50;57.40;;;;;;5031344;28;77021;-66
2021/04/20 07:49:27;;;;;;;;;;;15.70;57.10;;;;;;5031171;28;77308;-63
2021/04/20 07:52:06;;;;;;;;;;;15.90;57.10;;;;;;5031589;28;76083;-67
2021/04/20 07:54:37;;;;;;;;;;;16.00;56.90;;;;;;5018372;28;75131;-66
2021/04/20 07:57:07;;;;;;;;;;;16.20;56.20;;;;;;5010955;28;74643;-70
2021/04/20 07:59:45;;;;;;;;;;;16.30;55.60;;;;;;5010578;28;75596;-68
2021/04/20 08:02:29;;;;;;;;;;;16.40;55.20;;;;;;5011518;28;75524;-68
2021/04/20 08:05:11;;;;;;;;;;;16.50;55.10;;;;;;5011947;28;74900;-69
2021/04/20 08:07:43;;;;;;;;;;;16.60;54.70;;;;;;5012692;28;75257;-69
2021/04/20 08:10:10;;;;;;;;;;;16.60;54.80;;;;;;5010791;28;75486;-68
2021/04/20 08:12:41;;;;;;;;;;;16.50;56.00;;;;;;5011089;28;77170;-64
2021/04/20 08:15:06;;;;;;;;;;;16.40;56.10;;;;;;5012497;28;74710;-67
2021/04/20 08:17:38;;;;;;;;;;;16.30;56.70;;;;;;5010510;28;74724;-64
2021/04/20 08:20:07;;;;;;;;;;;16.30;56.80;;;;;;5012325;28;75635;-64
2021/04/20 08:22:33;;;;;;;;;;;16.40;56.70;;;;;;5010958;28;76532;-64
2021/04/20 08:25:02;;;;;;;;;;;16.70;56.60;;;;;;5012205;28;74530;-63
2021/04/20 08:27:47;;;;;;;;;;;16.50;56.00;;;;;;5012644;28;74674;-65
2021/04/20 08:30:28;;;;;;;;;;;16.50;56.40;;;;;;5011227;28;76172;-69
2021/04/20 08:32:54;;;;;;;;;;;16.50;56.60;;;;;;5012465;28;75253;-63
2021/04/20 08:35:25;;;;;;;;;;;16.50;56.00;;;;;;5011188;28;75205;-63
2021/04/20 08:38:10;;;;;;;;;;;16.50;56.10;;;;;;5012545;28;74409;-62
2021/04/20 08:40:56;;;;;;;;;;;16.40;55.90;;;;;;5012344;28;75358;-63
2021/04/20 08:43:54;;;;;;;;;;;16.30;56.30;;;;;;5011885;28;75179;-61
2021/04/20 08:46:23;;;;;;;;;;;16.30;57.20;;;;;;5018233;28;76182;-64
2021/04/20 08:48:53;;;;;;;;;;;16.40;56.60;;;;;;5030487;28;74700;-62
2021/04/20 08:51:19;;;;;;;;;;;16.50;56.50;;;;;;5032256;28;74523;-59
2021/04/20 08:53:57;;;;;;;;;;;16.70;56.10;;;;;;5025240;28;78040;-64
2021/04/20 08:56:26;;;;;;;;;;;16.90;55.90;;;;;;5019697;28;75013;-60
2021/04/20 08:59:08;;;;;;;;;;;17.00;55.30;;;;;;5031675;28;75050;-61
2021/04/20 09:01:37;;;;;;;;;;;17.00;55.00;;;;;;5030665;28;74717;-59
2021/04/20 09:04:21;;;;;;;;;;;17.00;55.20;;;;;;5030163;28;75636;-59
2021/04/20 09:06:51;;;;;;;;;;;17.20;54.60;;;;;;5031890;28;75081;-60
2021/04/20 09:09:17;;;;;;;;;;;17.40;54.30;;;;;;5031851;28;75178;-66
2021/04/20 09:12:02;;;;;;;;;;;17.50;53.00;;;;;;5030558;28;76490;-59
2021/04/20 09:14:28;;;;;;;;;;;17.70;53.30;;;;;;5031726;28;74661;-63
2021/04/20 09:16:57;;;;;;;;;;;17.90;52.70;;;;;;5031659;28;75145;-59
2021/04/20 09:19:33;;;;;;;;;;;17.90;52.40;;;;;;5029784;28;77100;-60
2021/04/20 09:21:58;;;;;;;;;;;18.00;52.50;;;;;;5030428;28;77585;-62
2021/04/20 09:24:29;;;;;;;;;;;18.20;51.80;;;;;;5031609;28;75088;-64
2021/04/20 09:27:10;;;;;;;;;;;18.30;51.40;;;;;;5030133;28;76515;-61
2021/04/20 09:29:38;;;;;;;;;;;18.40;51.10;;;;;;5030071;28;75175;-60
2021/04/20 09:32:07;;;;;;;;;;;18.50;51.30;;;;;;5031905;28;75232;-59
2021/04/20 09:34:36;;;;;;;;;;;18.60;50.20;;;;;;5031050;28;75245;-64
2021/04/20 09:37:03;;;;;;;;;;;18.80;50.10;;;;;;5019639;28;78000;-64
2021/04/20 09:39:30;;;;;;;;;;;19.00;50.10;;;;;;5028940;28;75247;-62
2021/04/20 09:41:59;;;;;;;;;;;19.20;49.40;;;;;;5033090;28;74982;-62
2021/04/20 09:44:34;;;;;;;;;;;19.40;48.90;;;;;;5034854;28;75242;-67
2021/04/20 09:47:11;;;;;;;;;;;19.40;48.30;;;;;;5033307;28;77435;-62
2021/04/20 09:49:56;;;;;;;;;;;19.50;48.50;;;;;;5034393;28;74448;-60
2021/04/20 09:52:22;;;;;;;;;;;19.70;48.40;;;;;;5033630;28;76578;-59
2021/04/20 09:54:53;;;;;;;;;;;19.90;46.80;;;;;;5032909;28;75830;-59
2021/04/20 09:57:20;;;;;;;;;;;20.00;47.40;;;;;;5032971;28;77406;-60
2021/04/20 09:59:52;;;;;;;;;;;20.20;46.40;;;;;;5017133;28;74607;-60
2021/04/20 10:02:18;;;;;;;;;;;20.30;46.60;;;;;;5013416;28;75727;-61
2021/04/20 10:04:56;;;;;;;;;;;20.50;46.50;;;;;;5014422;28;75120;-60
2021/04/20 10:07:34;;;;;;;;;;;20.80;46.10;;;;;;5014142;28;75807;-59
2021/04/20 10:09:59;;;;;;;;;;;21.20;45.20;;;;;;5013279;28;77462;-59
2021/04/20 10:12:32;;;;;;;;;;;21.60;43.60;;;;;;5013047;28;76692;-59
2021/04/20 10:15:10;;;;;;;;;;;21.90;43.30;;;;;;5012998;28;75494;-59
2021/04/20 10:17:59;;;;;;;;;;;22.50;43.20;;;;;;5013760;28;75185;-60
2021/04/20 10:20:37;;;;;;;;;;;23.10;41.90;;;;;;5013497;28;75089;-59
2021/04/20 10:23:18;;;;;;;;;;;23.50;40.60;;;;;;5014237;28;75185;-60
2021/04/20 10:25:49;;;;;;;;;;;23.70;40.30;;;;;;5013754;28;74570;-59
2021/04/20 10:28:15;;;;;;;;;;;23.40;38.50;;;;;;5012624;28;75683;-61
2021/04/20 10:30:42;;;;;;;;;;;22.80;39.90;;;;;;5012354;28;75410;-60
2021/04/20 10:33:10;;;;;;;;;;;22.40;40.70;;;;;;5014198;28;75405;-62
2021/04/20 10:35:39;;;;;;;;;;;22.60;41.60;;;;;;5012086;28;77370;-60
2021/04/20 10:38:15;;;;;;;;;;;23.30;41.10;;;;;;5012551;28;75545;-60
2021/04/20 10:40:44;;;;;;;;;;;23.50;39.90;;;;;;5011652;28;76087;-60
2021/04/20 10:43:09;;;;;;;;;;;23.30;39.40;;;;;;4994134;28;75349;-59
2021/04/20 10:45:35;;;;;;;;;;;22.90;40.80;;;;;;5006695;28;75118;-60
2021/04/20 10:48:01;;;;;;;;;;;22.40;41.90;;;;;;5010240;28;75346;-59
2021/04/20 10:50:29;;;;;;;;;;;22.00;42.90;;;;;;5012306;28;77432;-59
2021/04/20 10:53:01;;;;;;;;;;;21.60;44.10;;;;;;5012622;28;75333;-60
2021/04/20 10:55:28;;;;;;;;;;;21.40;45.00;;;;;;5012265;28;75628;-59
2021/04/20 10:57:55;;;;;;;;;;;21.00;45.40;;;;;;5013354;28;75682;-59
2021/04/20 11:00:21;;;;;;;;;;;20.70;47.20;;;;;;5013545;28;75010;-61
2021/04/20 11:02:49;;;;;;;;;;;20.50;47.70;;;;;;5013760;28;75128;-60
2021/04/20 11:05:21;;;;;;;;;;;20.30;47.60;;;;;;5030120;28;75174;-64
2021/04/20 11:07:47;;;;;;;;;;;20.10;48.80;;;;;;5033622;28;75302;-62
2021/04/20 11:10:14;;;;;;;;;;;20.00;49.50;;;;;;5031916;28;77368;-59
2021/04/20 11:12:41;;;;;;;;;;;19.90;49.60;;;;;;5033392;28;75081;-60
2021/04/20 11:15:07;;;;;;;;;;;19.80;49.40;;;;;;5031555;28;77006;-60
2021/04/20 11:17:41;;;;;;;;;;;19.80;50.00;;;;;;5033208;28;75043;-59
2021/04/20 11:20:09;;;;;;;;;;;19.60;50.10;;;;;;5031691;28;76463;-61
2021/04/20 11:22:54;;;;;;;;;;;19.70;50.00;;;;;;5033251;28;75158;-62
2021/04/20 11:25:30;;;;;;;;;;;19.80;49.60;;;;;;5033504;28;74997;-62
2021/04/20 11:27:58;;;;;;;;;;;20.00;49.30;;;;;;5031882;28;75363;-62
2021/04/20 11:30:29;;;;;;;;;;;20.30;48.20;;;;;;5032052;28;75483;-61
2021/04/20 11:32:56;;;;;;;;;;;20.40;47.50;;;;;;5031636;28;77484;-60
2021/04/20 11:35:22;;;;;;;;;;;20.40;47.20;;;;;;5033068;28;75925;-63
2021/04/20 11:37:50;;;;;;;;;;;20.50;47.00;;;;;;5030989;28;75881;-62
2021/04/20 11:40:27;;;;;;;;;;;20.90;46.50;;;;;;5033455;28;75088;-61
2021/04/20 11:42:53;;;;;;;;;;;21.70;46.00;;;;;;5032511;28;75358;-60
2021/04/20 11:45:20;;;;;;;;;;;25.70;39.90;;;;;;5027773;28;77292;-65
2021/04/20 11:47:56;;;;;;;;;;;29.30;32.70;;;;;;5019114;28;75247;-60
2021/04/20 11:50:23;;;;;;;;;;;31.30;29.60;;;;;;5032792;28;74633;-63
2021/04/20 11:53:00;;;;;;;;;;;33.10;25.70;;;;;;5031348;28;77538;-63
2021/04/20 11:55:30;;;;;;;;;;;34.20;25.40;;;;;;5032598;28;75328;-67
2021/04/20 11:58:06;;;;;;;;;;;35.70;24.70;;;;;;5031132;28;77511;-67
2021/04/20 12:00:33;;;;;;;;;;;36.90;23.20;;;;;;5032597;28;74534;-68
2021/04/20 12:03:28;;;;;;;;;;;37.50;21.60;;;;;;5032513;28;75755;-66
2021/04/20 12:05:55;;;;;;;;;;;38.00;22.10;;;;;;5029889;28;76636;-61
2021/04/20 12:08:29;;;;;;;;;;;39.40;20.60;;;;;;5032349;28;75218;-62
2021/04/20 12:10:55;;;;;;;;;;;39.70;20.00;;;;;;5031066;28;77209;-60
2021/04/20 12:13:23;;;;;;;;;;;38.80;18.50;;;;;;5030627;28;75492;-60
2021/04/20 12:16:15;;;;;;;;;;;36.50;22.20;;;;;;5032601;28;75416;-61
2021/04/20 12:18:45;;;;;;;;;;;34.80;22.80;;;;;;5031387;28;75308;-61
2021/04/20 12:21:12;;;;;;;;;;;32.60;25.10;;;;;;5030682;28;77314;-61
2021/04/20 12:23:39;;;;;;;;;;;30.90;27.20;;;;;;5030429;28;75844;-62
2021/04/20 12:26:06;;;;;;;;;;;30.90;26.20;;;;;;5032401;28;75039;-62
2021/04/20 12:28:33;;;;;;;;;;;29.40;27.70;;;;;;5014975;28;78112;-60
2021/04/20 12:30:59;;;;;;;;;;;27.80;30.00;;;;;;5011236;28;75907;-63
2021/04/20 12:33:27;;;;;;;;;;;26.60;31.20;;;;;;5010053;28;77574;-61
2021/04/20 12:35:53;;;;;;;;;;;25.70;33.40;;;;;;5009654;28;75180;-60
2021/04/20 12:38:20;;;;;;;;;;;25.20;34.10;;;;;;5012204;28;74511;-61
2021/04/20 12:40:50;;;;;;;;;;;24.50;34.60;;;;;;5010486;28;77759;-60
2021/04/20 12:43:18;;;;;;;;;;;24.00;35.40;;;;;;5010984;28;75462;-60
2021/04/20 12:45:43;;;;;;;;;;;23.60;35.70;;;;;;5011346;28;75792;-60
2021/04/20 12:48:10;;;;;;;;;;;23.20;36.40;;;;;;5012573;28;75290;-60
2021/04/20 12:50:46;;;;;;;;;;;22.80;38.00;;;;;;5010646;28;77211;-61
2021/04/20 12:53:13;;;;;;;;;;;22.10;40.40;;;;;;5010785;28;78060;-60
2021/04/20 12:55:39;;;;;;;;;;;21.50;43.60;;;;;;5010808;28;75224;-61
2021/04/20 12:58:06;;;;;;;;;;;21.00;45.70;;;;;;5012142;28;75202;-60
2021/04/20 13:00:34;;;;;;;;;;;20.50;47.00;;;;;;5010365;28;75698;-62
2021/04/20 13:03:00;;;;;;;;;;;20.10;47.20;;;;;;5010776;28;76987;-60
2021/04/20 13:05:27;;;;;;;;;;;19.80;48.20;;;;;;5011451;28;74748;-60
2021/04/20 13:07:53;;;;;;;;;;;19.60;48.70;;;;;;5012137;28;75281;-60
2021/04/20 13:10:20;;;;;;;;;;;19.50;48.70;;;;;;5010744;28;77282;-62
2021/04/20 13:12:52;;;;;;;;;;;19.60;47.50;;;;;;5012634;28;74439;-68
2021/04/20 13:15:20;;;;;;;;;;;19.90;47.90;;;;;;5010700;28;75461;-65
2021/04/20 13:17:45;;;;;;;;;;;20.10;47.70;;;;;;5013279;28;77623;-65
2021/04/20 13:20:13;;;;;;;;;;;20.10;46.30;;;;;;5013800;28;75234;-63
2021/04/20 13:22:38;;;;;;;;;;;20.10;45.30;;;;;;5013765;28;78068;-60
2021/04/20 13:25:05;;;;;;;;;;;20.20;45.70;;;;;;5015472;28;75078;-60
2021/04/20 13:27:33;;;;;;;;;;;20.40;44.50;;;;;;5015080;28;75362;-67
2021/04/20 13:29:59;;;;;;;;;;;20.70;43.90;;;;;;5013895;28;78077;-62
2021/04/20 13:32:26;;;;;;;;;;;20.70;41.90;;;;;;5015038;28;75228;-65
2021/04/20 13:34:52;;;;;;;;;;;20.70;42.20;;;;;;5015422;28;75670;-61
2021/04/20 13:37:26;;;;;;;;;;;20.80;41.50;;;;;;5015670;28;75458;-61
2021/04/20 13:39:55;;;;;;;;;;;20.90;39.30;;;;;;5015249;28;75058;-60
2021/04/20 13:42:24;;;;;;;;;;;21.10;40.40;;;;;;5015901;28;74969;-67
2021/04/20 13:44:59;;;;;;;;;;;21.70;38.60;;;;;;5015043;28;74990;-63
2021/04/20 13:47:26;;;;;;;;;;;22.20;38.30;;;;;;5015502;28;75510;-66
2021/04/20 13:49:53;;;;;;;;;;;22.30;37.20;;;;;;5014887;28;75036;-63
2021/04/20 13:52:19;;;;;;;;;;;22.30;37.20;;;;;;5014910;28;75858;-60
2021/04/20 13:54:57;;;;;;;;;;;21.90;37.10;;;;;;5014686;28;75296;-60
2021/04/20 13:57:28;;;;;;;;;;;21.70;38.20;;;;;;5015064;28;74432;-62
2021/04/20 13:59:57;;;;;;;;;;;21.50;38.50;;;;;;5014489;28;76775;-61
2021/04/20 14:02:22;;;;;;;;;;;21.40;39.00;;;;;;5014941;28;74704;-61
2021/04/20 14:04:50;;;;;;;;;;;21.40;39.20;;;;;;5013436;28;77360;-60
2021/04/20 14:07:24;;;;;;;;;;;21.50;38.90;;;;;;5014790;28;75655;-62
2021/04/20 14:09:55;;;;;;;;;;;21.40;38.70;;;;;;5014886;28;76495;-61
2021/04/20 14:12:28;;;;;;;;;;;21.00;39.00;;;;;;5014900;28;74983;-63
2021/04/20 14:15:00;;;;;;;;;;;21.00;38.90;;;;;;5014506;28;74618;-62
2021/04/20 14:17:38;;;;;;;;;;;20.90;39.40;;;;;;5015016;28;75334;-62
2021/04/20 14:20:06;;;;;;;;;;;20.90;39.40;;;;;;5014718;28;75320;-61
2021/04/20 14:22:32;;;;;;;;;;;20.70;38.50;;;;;;5013173;28;78295;-60
2021/04/20 14:24:59;;;;;;;;;;;20.50;38.40;;;;;;5014586;28;75371;-62
2021/04/20 14:27:26;;;;;;;;;;;20.30;38.40;;;;;;5014295;28;76640;-61